sensor_id;sensor_type;location;lat;lon;timestamp;temperature;humidity
32173;DHT22;18679;45.190;5.722;2023-06-01T00:01:17;20.70;57.00
32173;DHT22;18679;45.190;5.722;2023-06-01T00:04:29;20.70;57.10
32173;DHT22;18679;45.190;5.722;2023-06-01T00:07:41;20.70;57.20
32173;DHT22;18679;45.190;5.722;2023-06-01T00:10:54;20.70;57.30
32173;DHT22;18679;45.190;5.722;2023-06-01T00:14:05;20.60;57.30
32173;DHT22;18679;45.190;5.722;2023-06-01T00:17:20;20.60;57.40
32173;DHT22;18679;45.190;5.722;2023-06-01T00:20:31;20.60;57.50
32173;DHT22;18679;45.190;5.722;2023-06-01T00:23:45;20.60;57.50
32173;DHT22;18679;45.190;5.722;2023-06-01T00:27:00;20.60;57.60
32173;DHT22;18679;45.190;5.722;2023-06-01T00:30:11;20.60;57.60
32173;DHT22;18679;45.190;5.722;2023-06-01T00:33:23;20.60;57.60
32173;DHT22;18679;45.190;5.722;2023-06-01T00:36:32;20.60;57.60
32173;DHT22;18679;45.190;5.722;2023-06-01T00:39:47;20.60;57.60
32173;DHT22;18679;45.190;5.722;2023-06-01T00:42:58;20.60;57.60
32173;DHT22;18679;45.190;5.722;2023-06-01T00:46:19;20.50;57.60
32173;DHT22;18679;45.190;5.722;2023-06-01T00:49:28;20.50;57.70
32173;DHT22;18679;45.190;5.722;2023-06-01T00:52:37;20.50;57.70
32173;DHT22;18679;45.190;5.722;2023-06-01T00:55:51;20.50;57.80
32173;DHT22;18679;45.190;5.722;2023-06-01T00:59:12;20.50;57.80
32173;DHT22;18679;45.190;5.722;2023-06-01T01:02:27;20.50;57.70
32173;DHT22;18679;45.190;5.722;2023-06-01T01:05:37;20.40;57.60
32173;DHT22;18679;45.190;5.722;2023-06-01T01:12:28;20.40;57.70
32173;DHT22;18679;45.190;5.722;2023-06-01T01:15:41;20.40;57.60
32173;DHT22;18679;45.190;5.722;2023-06-01T01:26:12;20.30;57.80
32173;DHT22;18679;45.190;5.722;2023-06-01T01:29:28;20.30;57.90
32173;DHT22;18679;45.190;5.722;2023-06-01T01:32:42;20.30;57.80
32173;DHT22;18679;45.190;5.722;2023-06-01T01:35:52;20.20;57.70
32173;DHT22;18679;45.190;5.722;2023-06-01T01:39:10;20.30;57.80
32173;DHT22;18679;45.190;5.722;2023-06-01T01:42:32;20.20;57.80
32173;DHT22;18679;45.190;5.722;2023-06-01T01:45:44;20.20;57.80
32173;DHT22;18679;45.190;5.722;2023-06-01T01:49:26;20.20;57.90
32173;DHT22;18679;45.190;5.722;2023-06-01T01:52:39;20.10;57.90
32173;DHT22;18679;45.190;5.722;2023-06-01T01:55:51;20.20;57.90
32173;DHT22;18679;45.190;5.722;2023-06-01T01:59:06;20.20;57.80
32173;DHT22;18679;45.190;5.722;2023-06-01T02:02:22;20.20;57.80
32173;DHT22;18679;45.190;5.722;2023-06-01T02:05:32;20.20;57.70
32173;DHT22;18679;45.190;5.722;2023-06-01T02:08:48;20.10;57.70
32173;DHT22;18679;45.190;5.722;2023-06-01T02:12:01;20.10;57.80
32173;DHT22;18679;45.190;5.722;2023-06-01T02:15:17;20.10;57.80
32173;DHT22;18679;45.190;5.722;2023-06-01T02:18:32;20.10;57.70
32173;DHT22;18679;45.190;5.722;2023-06-01T02:21:37;20.10;57.70
32173;DHT22;18679;45.190;5.722;2023-06-01T02:24:49;20.10;57.60
32173;DHT22;18679;45.190;5.722;2023-06-01T02:28:03;20.20;57.70
32173;DHT22;18679;45.190;5.722;2023-06-01T02:31:18;20.20;57.70
32173;DHT22;18679;45.190;5.722;2023-06-01T02:35:01;20.20;57.70
32173;DHT22;18679;45.190;5.722;2023-06-01T02:38:20;20.20;57.60
32173;DHT22;18679;45.190;5.722;2023-06-01T02:41:29;20.30;57.60
32173;DHT22;18679;45.190;5.722;2023-06-01T02:44:38;20.30;57.60
32173;DHT22;18679;45.190;5.722;2023-06-01T02:47:51;20.20;57.70
32173;DHT22;18679;45.190;5.722;2023-06-01T02:51:10;20.20;57.70
32173;DHT22;18679;45.190;5.722;2023-06-01T02:54:30;20.30;57.70
32173;DHT22;18679;45.190;5.722;2023-06-01T02:57:46;20.30;57.60
32173;DHT22;18679;45.190;5.722;2023-06-01T03:01:01;20.40;57.60
32173;DHT22;18679;45.190;5.722;2023-06-01T03:04:16;20.40;57.50
32173;DHT22;18679;45.190;5.722;2023-06-01T03:07:29;20.40;57.50
32173;DHT22;18679;45.190;5.722;2023-06-01T03:10:47;20.50;57.60
32173;DHT22;18679;45.190;5.722;2023-06-01T03:14:02;20.40;57.40
32173;DHT22;18679;45.190;5.722;2023-06-01T03:17:14;20.40;57.30
32173;DHT22;18679;45.190;5.722;2023-06-01T03:20:26;20.40;57.30
32173;DHT22;18679;45.190;5.722;2023-06-01T03:23:33;20.40;57.30
32173;DHT22;18679;45.190;5.722;2023-06-01T03:26:48;20.40;57.20
32173;DHT22;18679;45.190;5.722;2023-06-01T03:30:04;20.40;57.20
32173;DHT22;18679;45.190;5.722;2023-06-01T03:33:20;20.30;57.20
32173;DHT22;18679;45.190;5.722;2023-06-01T03:36:39;20.30;57.30
32173;DHT22;18679;45.190;5.722;2023-06-01T03:39:49;20.30;57.40
32173;DHT22;18679;45.190;5.722;2023-06-01T03:42:56;20.20;57.40
32173;DHT22;18679;45.190;5.722;2023-06-01T03:46:20;20.30;57.50
32173;DHT22;18679;45.190;5.722;2023-06-01T03:49:27;20.20;57.60
32173;DHT22;18679;45.190;5.722;2023-06-01T03:52:41;20.20;57.90
32173;DHT22;18679;45.190;5.722;2023-06-01T03:55:51;20.20;58.10
32173;DHT22;18679;45.190;5.722;2023-06-01T03:59:24;20.10;58.30
32173;DHT22;18679;45.190;5.722;2023-06-01T04:02:38;20.10;58.60
32173;DHT22;18679;45.190;5.722;2023-06-01T04:05:49;20.10;58.70
32173;DHT22;18679;45.190;5.722;2023-06-01T04:09:20;20.00;58.70
32173;DHT22;18679;45.190;5.722;2023-06-01T04:12:32;20.00;58.80
32173;DHT22;18679;45.190;5.722;2023-06-01T04:15:42;20.00;58.80
32173;DHT22;18679;45.190;5.722;2023-06-01T04:19:08;19.90;58.90
32173;DHT22;18679;45.190;5.722;2023-06-01T04:22:25;20.00;58.90
32173;DHT22;18679;45.190;5.722;2023-06-01T04:25:47;20.00;59.00
32173;DHT22;18679;45.190;5.722;2023-06-01T04:29:10;19.90;59.00
32173;DHT22;18679;45.190;5.722;2023-06-01T04:32:29;19.80;59.30
32173;DHT22;18679;45.190;5.722;2023-06-01T04:35:49;19.60;59.50
32173;DHT22;18679;45.190;5.722;2023-06-01T04:39:00;19.60;59.70
32173;DHT22;18679;45.190;5.722;2023-06-01T04:42:20;19.60;59.90
32173;DHT22;18679;45.190;5.722;2023-06-01T04:45:37;19.50;60.00
32173;DHT22;18679;45.190;5.722;2023-06-01T04:48:49;19.50;60.20
32173;DHT22;18679;45.190;5.722;2023-06-01T04:52:01;19.40;60.10
32173;DHT22;18679;45.190;5.722;2023-06-01T04:55:26;19.40;60.30
32173;DHT22;18679;45.190;5.722;2023-06-01T04:58:37;19.50;60.50
32173;DHT22;18679;45.190;5.722;2023-06-01T05:01:44;19.50;60.30
32173;DHT22;18679;45.190;5.722;2023-06-01T05:04:54;19.50;60.30
32173;DHT22;18679;45.190;5.722;2023-06-01T05:08:12;19.40;60.40
32173;DHT22;18679;45.190;5.722;2023-06-01T05:11:27;19.50;60.50
32173;DHT22;18679;45.190;5.722;2023-06-01T05:14:42;19.50;60.70
32173;DHT22;18679;45.190;5.722;2023-06-01T05:17:54;19.50;60.70
32173;DHT22;18679;45.190;5.722;2023-06-01T05:21:08;19.50;60.70
32173;DHT22;18679;45.190;5.722;2023-06-01T05:24:22;19.60;60.70
32173;DHT22;18679;45.190;5.722;2023-06-01T05:27:32;19.60;60.50
32173;DHT22;18679;45.190;5.722;2023-06-01T05:30:45;19.50;60.30
32173;DHT22;18679;45.190;5.722;2023-06-01T05:33:54;19.70;60.40
32173;DHT22;18679;45.190;5.722;2023-06-01T05:37:10;19.70;60.30
32173;DHT22;18679;45.190;5.722;2023-06-01T05:40:26;19.70;60.40
32173;DHT22;18679;45.190;5.722;2023-06-01T05:43:39;19.80;60.30
32173;DHT22;18679;45.190;5.722;2023-06-01T05:46:49;19.80;60.30
32173;DHT22;18679;45.190;5.722;2023-06-01T05:50:01;19.90;60.00
32173;DHT22;18679;45.190;5.722;2023-06-01T05:53:17;19.90;59.90
32173;DHT22;18679;45.190;5.722;2023-06-01T05:56:34;20.10;59.70
32173;DHT22;18679;45.190;5.722;2023-06-01T05:59:50;20.10;60.10
32173;DHT22;18679;45.190;5.722;2023-06-01T06:03:02;20.20;59.40
32173;DHT22;18679;45.190;5.722;2023-06-01T06:06:18;20.30;59.20
32173;DHT22;18679;45.190;5.722;2023-06-01T06:09:32;20.40;59.00
32173;DHT22;18679;45.190;5.722;2023-06-01T06:12:45;20.50;58.80
32173;DHT22;18679;45.190;5.722;2023-06-01T06:15:53;20.60;58.50
32173;DHT22;18679;45.190;5.722;2023-06-01T06:19:06;20.70;58.40
32173;DHT22;18679;45.190;5.722;2023-06-01T06:22:27;20.70;58.30
32173;DHT22;18679;45.190;5.722;2023-06-01T06:25:45;20.90;58.20
32173;DHT22;18679;45.190;5.722;2023-06-01T06:28:56;20.90;57.80
32173;DHT22;18679;45.190;5.722;2023-06-01T06:32:10;21.00;57.70
32173;DHT22;18679;45.190;5.722;2023-06-01T06:35:21;21.00;57.60
32173;DHT22;18679;45.190;5.722;2023-06-01T06:38:37;21.10;57.40
32173;DHT22;18679;45.190;5.722;2023-06-01T06:41:51;21.10;57.10
32173;DHT22;18679;45.190;5.722;2023-06-01T06:45:06;21.20;57.10
32173;DHT22;18679;45.190;5.722;2023-06-01T06:48:20;21.30;57.00
32173;DHT22;18679;45.190;5.722;2023-06-01T06:51:32;21.50;56.80
32173;DHT22;18679;45.190;5.722;2023-06-01T06:54:51;21.60;56.50
32173;DHT22;18679;45.190;5.722;2023-06-01T06:58:10;21.80;56.30
32173;DHT22;18679;45.190;5.722;2023-06-01T07:01:19;21.90;55.90
32173;DHT22;18679;45.190;5.722;2023-06-01T07:04:30;22.10;55.70
32173;DHT22;18679;45.190;5.722;2023-06-01T07:07:46;22.20;55.20
32173;DHT22;18679;45.190;5.722;2023-06-01T07:10:56;22.30;54.80
32173;DHT22;18679;45.190;5.722;2023-06-01T07:14:14;22.50;54.80
32173;DHT22;18679;45.190;5.722;2023-06-01T07:17:39;22.70;54.30
32173;DHT22;18679;45.190;5.722;2023-06-01T07:20:54;22.80;53.80
32173;DHT22;18679;45.190;5.722;2023-06-01T07:24:09;23.00;53.50
32173;DHT22;18679;45.190;5.722;2023-06-01T07:27:23;23.10;53.00
32173;DHT22;18679;45.190;5.722;2023-06-01T07:30:31;23.20;52.80
32173;DHT22;18679;45.190;5.722;2023-06-01T07:33:38;23.20;52.70
32173;DHT22;18679;45.190;5.722;2023-06-01T07:36:51;23.30;52.40
32173;DHT22;18679;45.190;5.722;2023-06-01T07:40:06;23.40;51.90
32173;DHT22;18679;45.190;5.722;2023-06-01T07:43:18;23.50;51.80
32173;DHT22;18679;45.190;5.722;2023-06-01T07:46:27;23.50;51.70
32173;DHT22;18679;45.190;5.722;2023-06-01T07:49:33;23.60;51.70
32173;DHT22;18679;45.190;5.722;2023-06-01T07:52:46;23.80;51.50
32173;DHT22;18679;45.190;5.722;2023-06-01T07:55:51;23.90;51.20
32173;DHT22;18679;45.190;5.722;2023-06-01T07:59:00;24.10;50.60
32173;DHT22;18679;45.190;5.722;2023-06-01T08:02:11;24.20;50.30
32173;DHT22;18679;45.190;5.722;2023-06-01T08:05:27;24.30;50.10
32173;DHT22;18679;45.190;5.722;2023-06-01T08:08:39;24.40;49.80
32173;DHT22;18679;45.190;5.722;2023-06-01T08:11:54;24.50;49.50
32173;DHT22;18679;45.190;5.722;2023-06-01T08:15:07;24.70;49.10
32173;DHT22;18679;45.190;5.722;2023-06-01T08:18:18;24.80;48.60
32173;DHT22;18679;45.190;5.722;2023-06-01T08:21:31;24.80;48.20
32173;DHT22;18679;45.190;5.722;2023-06-01T08:24:45;24.90;48.20
32173;DHT22;18679;45.190;5.722;2023-06-01T08:28:02;25.00;47.80
32173;DHT22;18679;45.190;5.722;2023-06-01T08:31:23;25.10;47.50
32173;DHT22;18679;45.190;5.722;2023-06-01T08:34:32;25.20;47.50
32173;DHT22;18679;45.190;5.722;2023-06-01T08:37:41;25.30;47.10
32173;DHT22;18679;45.190;5.722;2023-06-01T08:40:51;25.50;46.90
32173;DHT22;18679;45.190;5.722;2023-06-01T08:44:06;25.60;46.50
32173;DHT22;18679;45.190;5.722;2023-06-01T08:47:24;25.70;45.90
32173;DHT22;18679;45.190;5.722;2023-06-01T08:50:34;25.80;45.50
32173;DHT22;18679;45.190;5.722;2023-06-01T08:53:42;25.90;45.40
32173;DHT22;18679;45.190;5.722;2023-06-01T08:57:03;26.00;45.40
32173;DHT22;18679;45.190;5.722;2023-06-01T09:00:22;26.10;45.10
32173;DHT22;18679;45.190;5.722;2023-06-01T09:03:35;26.20;44.50
32173;DHT22;18679;45.190;5.722;2023-06-01T09:06:44;26.30;44.00
32173;DHT22;18679;45.190;5.722;2023-06-01T09:09:54;26.30;43.80
32173;DHT22;18679;45.190;5.722;2023-06-01T09:13:08;26.20;43.60
32173;DHT22;18679;45.190;5.722;2023-06-01T09:16:19;26.20;43.60
32173;DHT22;18679;45.190;5.722;2023-06-01T09:19:43;26.10;43.70
32173;DHT22;18679;45.190;5.722;2023-06-01T09:22:56;26.20;43.90
32173;DHT22;18679;45.190;5.722;2023-06-01T09:26:26;26.30;43.40
32173;DHT22;18679;45.190;5.722;2023-06-01T09:29:37;26.30;43.70
32173;DHT22;18679;45.190;5.722;2023-06-01T09:32:49;26.40;42.60
32173;DHT22;18679;45.190;5.722;2023-06-01T09:36:05;26.50;42.40
32173;DHT22;18679;45.190;5.722;2023-06-01T09:39:19;26.60;42.20
32173;DHT22;18679;45.190;5.722;2023-06-01T09:42:33;26.70;42.00
32173;DHT22;18679;45.190;5.722;2023-06-01T09:45:44;26.70;41.70
32173;DHT22;18679;45.190;5.722;2023-06-01T09:49:08;26.70;41.50
32173;DHT22;18679;45.190;5.722;2023-06-01T09:52:16;26.70;41.60
32173;DHT22;18679;45.190;5.722;2023-06-01T09:55:29;26.80;41.50
32173;DHT22;18679;45.190;5.722;2023-06-01T09:58:40;26.90;41.50
32173;DHT22;18679;45.190;5.722;2023-06-01T10:01:50;27.00;41.40
32173;DHT22;18679;45.190;5.722;2023-06-01T10:04:57;27.00;41.20
32173;DHT22;18679;45.190;5.722;2023-06-01T10:08:19;27.20;41.00
32173;DHT22;18679;45.190;5.722;2023-06-01T10:11:31;27.30;40.80
32173;DHT22;18679;45.190;5.722;2023-06-01T10:14:39;27.30;40.80
32173;DHT22;18679;45.190;5.722;2023-06-01T10:17:48;27.40;40.70
32173;DHT22;18679;45.190;5.722;2023-06-01T10:20:57;27.40;40.60
32173;DHT22;18679;45.190;5.722;2023-06-01T10:24:19;27.50;40.30
32173;DHT22;18679;45.190;5.722;2023-06-01T10:27:38;27.50;39.90
32173;DHT22;18679;45.190;5.722;2023-06-01T10:31:36;27.60;39.60
32173;DHT22;18679;45.190;5.722;2023-06-01T10:34:43;27.70;39.70
32173;DHT22;18679;45.190;5.722;2023-06-01T10:41:30;28.10;39.40
32173;DHT22;18679;45.190;5.722;2023-06-01T10:47:53;28.20;38.90
32173;DHT22;18679;45.190;5.722;2023-06-01T10:51:20;28.30;38.70
32173;DHT22;18679;45.190;5.722;2023-06-01T10:54:32;28.50;38.50
32173;DHT22;18679;45.190;5.722;2023-06-01T10:57:47;28.60;38.10
32173;DHT22;18679;45.190;5.722;2023-06-01T11:01:00;28.80;37.80
32173;DHT22;18679;45.190;5.722;2023-06-01T11:04:37;29.00;37.50
32173;DHT22;18679;45.190;5.722;2023-06-01T11:07:48;29.40;37.10
32173;DHT22;18679;45.190;5.722;2023-06-01T11:10:59;29.90;36.80
32173;DHT22;18679;45.190;5.722;2023-06-01T11:14:28;30.00;36.40
32173;DHT22;18679;45.190;5.722;2023-06-01T11:17:39;30.10;36.20
32173;DHT22;18679;45.190;5.722;2023-06-01T11:20:50;30.40;36.20
32173;DHT22;18679;45.190;5.722;2023-06-01T11:24:18;30.60;35.90
32173;DHT22;18679;45.190;5.722;2023-06-01T11:27:32;31.10;35.60
32173;DHT22;18679;45.190;5.722;2023-06-01T11:30:44;32.40;34.00
32173;DHT22;18679;45.190;5.722;2023-06-01T11:33:54;33.50;32.30
32173;DHT22;18679;45.190;5.722;2023-06-01T11:37:19;34.20;31.30
32173;DHT22;18679;45.190;5.722;2023-06-01T11:40:27;34.60;30.30
32173;DHT22;18679;45.190;5.722;2023-06-01T11:43:42;34.60;30.30
32173;DHT22;18679;45.190;5.722;2023-06-01T11:47:11;34.60;30.40
32173;DHT22;18679;45.190;5.722;2023-06-01T11:50:32;34.50;30.50
32173;DHT22;18679;45.190;5.722;2023-06-01T11:53:42;34.60;30.40
32173;DHT22;18679;45.190;5.722;2023-06-01T11:56:45;34.40;30.40
32173;DHT22;18679;45.190;5.722;2023-06-01T11:59:54;34.10;30.70
32173;DHT22;18679;45.190;5.722;2023-06-01T12:03:10;33.80;31.10
32173;DHT22;18679;45.190;5.722;2023-06-01T12:06:27;33.40;31.30
32173;DHT22;18679;45.190;5.722;2023-06-01T12:09:33;32.90;31.80
32173;DHT22;18679;45.190;5.722;2023-06-01T12:12:44;32.50;32.50
32173;DHT22;18679;45.190;5.722;2023-06-01T12:15:54;32.40;32.80
32173;DHT22;18679;45.190;5.722;2023-06-01T12:19:21;32.80;32.50
32173;DHT22;18679;45.190;5.722;2023-06-01T12:22:32;33.30;31.40
32173;DHT22;18679;45.190;5.722;2023-06-01T12:25:57;33.40;31.00
32173;DHT22;18679;45.190;5.722;2023-06-01T12:29:05;33.50;30.50
32173;DHT22;18679;45.190;5.722;2023-06-01T12:32:19;33.50;30.50
32173;DHT22;18679;45.190;5.722;2023-06-01T12:35:31;33.90;30.10
32173;DHT22;18679;45.190;5.722;2023-06-01T12:42:18;35.10;29.00
32173;DHT22;18679;45.190;5.722;2023-06-01T12:45:41;36.00;28.20
32173;DHT22;18679;45.190;5.722;2023-06-01T12:48:54;36.20;27.80
32173;DHT22;18679;45.190;5.722;2023-06-01T12:52:04;36.20;27.60
32173;DHT22;18679;45.190;5.722;2023-06-01T12:55:20;36.40;27.40
32173;DHT22;18679;45.190;5.722;2023-06-01T12:58:32;36.90;27.00
32173;DHT22;18679;45.190;5.722;2023-06-01T13:01:45;37.00;26.90
32173;DHT22;18679;45.190;5.722;2023-06-01T13:04:56;37.40;26.30
32173;DHT22;18679;45.190;5.722;2023-06-01T13:08:10;37.90;25.80
32173;DHT22;18679;45.190;5.722;2023-06-01T13:11:21;38.40;25.30
32173;DHT22;18679;45.190;5.722;2023-06-01T13:14:32;39.00;24.60
32173;DHT22;18679;45.190;5.722;2023-06-01T13:17:41;39.50;24.30
32173;DHT22;18679;45.190;5.722;2023-06-01T13:20:53;39.80;23.80
32173;DHT22;18679;45.190;5.722;2023-06-01T13:24:12;40.20;23.60
32173;DHT22;18679;45.190;5.722;2023-06-01T13:27:32;40.80;22.80
32173;DHT22;18679;45.190;5.722;2023-06-01T13:30:48;41.90;22.10
32173;DHT22;18679;45.190;5.722;2023-06-01T13:33:59;42.20;21.20
32173;DHT22;18679;45.190;5.722;2023-06-01T13:37:10;42.70;21.10
32173;DHT22;18679;45.190;5.722;2023-06-01T13:40:20;43.30;20.60
32173;DHT22;18679;45.190;5.722;2023-06-01T13:43:32;43.80;20.00
32173;DHT22;18679;45.190;5.722;2023-06-01T13:46:49;44.30;19.90
32173;DHT22;18679;45.190;5.722;2023-06-01T13:50:01;45.00;19.40
32173;DHT22;18679;45.190;5.722;2023-06-01T13:53:12;45.40;19.00
32173;DHT22;18679;45.190;5.722;2023-06-01T13:56:29;45.70;18.80
32173;DHT22;18679;45.190;5.722;2023-06-01T13:59:37;45.20;19.10
32173;DHT22;18679;45.190;5.722;2023-06-01T14:02:47;44.60;19.00
32173;DHT22;18679;45.190;5.722;2023-06-01T14:05:59;44.60;19.10
32173;DHT22;18679;45.190;5.722;2023-06-01T14:09:10;44.90;18.90
32173;DHT22;18679;45.190;5.722;2023-06-01T14:12:31;45.20;18.60
32173;DHT22;18679;45.190;5.722;2023-06-01T14:15:42;45.50;18.50
32173;DHT22;18679;45.190;5.722;2023-06-01T14:18:52;45.60;18.20
32173;DHT22;18679;45.190;5.722;2023-06-01T14:22:11;45.60;18.30
32173;DHT22;18679;45.190;5.722;2023-06-01T14:25:23;45.50;18.20
32173;DHT22;18679;45.190;5.722;2023-06-01T14:28:36;45.40;18.40
32173;DHT22;18679;45.190;5.722;2023-06-01T14:31:45;45.40;18.40
32173;DHT22;18679;45.190;5.722;2023-06-01T14:34:58;45.70;18.30
32173;DHT22;18679;45.190;5.722;2023-06-01T14:38:13;46.00;18.00
32173;DHT22;18679;45.190;5.722;2023-06-01T14:41:24;46.00;17.80
32173;DHT22;18679;45.190;5.722;2023-06-01T14:44:37;45.60;18.00
32173;DHT22;18679;45.190;5.722;2023-06-01T14:47:49;45.10;18.20
32173;DHT22;18679;45.190;5.722;2023-06-01T14:51:03;44.80;18.40
32173;DHT22;18679;45.190;5.722;2023-06-01T14:54:15;44.70;18.40
32173;DHT22;18679;45.190;5.722;2023-06-01T14:57:27;44.10;18.80
32173;DHT22;18679;45.190;5.722;2023-06-01T15:00:39;43.20;19.40
32173;DHT22;18679;45.190;5.722;2023-06-01T15:03:49;42.40;20.00
32173;DHT22;18679;45.190;5.722;2023-06-01T15:07:03;42.50;20.00
32173;DHT22;18679;45.190;5.722;2023-06-01T15:10:19;42.60;19.80
32173;DHT22;18679;45.190;5.722;2023-06-01T15:13:27;42.60;19.90
32173;DHT22;18679;45.190;5.722;2023-06-01T15:16:40;42.50;20.10
32173;DHT22;18679;45.190;5.722;2023-06-01T15:19:49;42.60;20.00
32173;DHT22;18679;45.190;5.722;2023-06-01T15:23:07;42.70;19.90
32173;DHT22;18679;45.190;5.722;2023-06-01T15:26:19;42.80;19.80
32173;DHT22;18679;45.190;5.722;2023-06-01T15:29:32;42.60;19.80
32173;DHT22;18679;45.190;5.722;2023-06-01T15:32:42;42.50;19.80
32173;DHT22;18679;45.190;5.722;2023-06-01T15:35:52;42.60;19.80
32173;DHT22;18679;45.190;5.722;2023-06-01T15:39:14;42.70;19.80
32173;DHT22;18679;45.190;5.722;2023-06-01T15:42:28;42.40;19.80
32173;DHT22;18679;45.190;5.722;2023-06-01T15:45:33;42.30;20.00
32173;DHT22;18679;45.190;5.722;2023-06-01T15:48:50;42.20;20.00
32173;DHT22;18679;45.190;5.722;2023-06-01T15:52:03;42.00;20.00
32173;DHT22;18679;45.190;5.722;2023-06-01T15:55:19;42.00;20.00
32173;DHT22;18679;45.190;5.722;2023-06-01T15:58:28;42.10;20.10
32173;DHT22;18679;45.190;5.722;2023-06-01T16:01:37;41.90;20.40
32173;DHT22;18679;45.190;5.722;2023-06-01T16:04:50;41.80;20.70
32173;DHT22;18679;45.190;5.722;2023-06-01T16:07:57;41.80;20.80
32173;DHT22;18679;45.190;5.722;2023-06-01T16:11:13;41.50;20.80
32173;DHT22;18679;45.190;5.722;2023-06-01T16:14:25;41.30;21.10
32173;DHT22;18679;45.190;5.722;2023-06-01T16:17:35;41.20;21.10
32173;DHT22;18679;45.190;5.722;2023-06-01T16:20:45;41.50;20.90
32173;DHT22;18679;45.190;5.722;2023-06-01T16:23:55;41.70;20.70
32173;DHT22;18679;45.190;5.722;2023-06-01T16:27:10;41.90;20.80
32173;DHT22;18679;45.190;5.722;2023-06-01T16:30:21;42.00;20.60
32173;DHT22;18679;45.190;5.722;2023-06-01T16:33:29;42.10;20.60
32173;DHT22;18679;45.190;5.722;2023-06-01T16:36:34;42.30;20.40
32173;DHT22;18679;45.190;5.722;2023-06-01T16:39:44;42.40;20.40
32173;DHT22;18679;45.190;5.722;2023-06-01T16:42:54;42.40;20.30
32173;DHT22;18679;45.190;5.722;2023-06-01T16:46:00;42.40;20.50
32173;DHT22;18679;45.190;5.722;2023-06-01T16:49:06;42.00;20.60
32173;DHT22;18679;45.190;5.722;2023-06-01T16:52:16;41.50;21.00
32173;DHT22;18679;45.190;5.722;2023-06-01T16:55:20;41.00;21.20
32173;DHT22;18679;45.190;5.722;2023-06-01T16:58:26;40.20;21.80
32173;DHT22;18679;45.190;5.722;2023-06-01T17:01:32;39.10;22.50
32173;DHT22;18679;45.190;5.722;2023-06-01T17:04:39;37.90;23.40
32173;DHT22;18679;45.190;5.722;2023-06-01T17:07:47;36.90;24.20
32173;DHT22;18679;45.190;5.722;2023-06-01T17:10:55;36.10;24.70
32173;DHT22;18679;45.190;5.722;2023-06-01T17:14:06;35.40;25.30
32173;DHT22;18679;45.190;5.722;2023-06-01T17:17:12;34.80;25.70
32173;DHT22;18679;45.190;5.722;2023-06-01T17:20:35;34.30;26.00
32173;DHT22;18679;45.190;5.722;2023-06-01T17:24:28;33.90;26.10
32173;DHT22;18679;45.190;5.722;2023-06-01T17:27:44;33.40;26.20
32173;DHT22;18679;45.190;5.722;2023-06-01T17:30:57;33.10;26.30
32173;DHT22;18679;45.190;5.722;2023-06-01T17:34:13;32.90;26.50
32173;DHT22;18679;45.190;5.722;2023-06-01T17:37:29;32.80;26.80
32173;DHT22;18679;45.190;5.722;2023-06-01T17:40:40;32.60;27.20
32173;DHT22;18679;45.190;5.722;2023-06-01T17:43:50;32.50;28.40
32173;DHT22;18679;45.190;5.722;2023-06-01T17:47:00;32.30;28.80
32173;DHT22;18679;45.190;5.722;2023-06-01T17:50:15;32.10;29.00
32173;DHT22;18679;45.190;5.722;2023-06-01T17:53:22;31.90;29.40
32173;DHT22;18679;45.190;5.722;2023-06-01T17:56:34;31.80;29.60
32173;DHT22;18679;45.190;5.722;2023-06-01T18:00:04;31.60;29.80
32173;DHT22;18679;45.190;5.722;2023-06-01T18:03:45;31.40;30.00
32173;DHT22;18679;45.190;5.722;2023-06-01T18:07:03;31.30;30.30
32173;DHT22;18679;45.190;5.722;2023-06-01T18:10:19;31.20;30.50
32173;DHT22;18679;45.190;5.722;2023-06-01T18:13:39;31.10;30.70
32173;DHT22;18679;45.190;5.722;2023-06-01T18:16:54;30.90;31.10
32173;DHT22;18679;45.190;5.722;2023-06-01T18:20:18;30.90;31.40
32173;DHT22;18679;45.190;5.722;2023-06-01T18:23:31;30.80;31.80
32173;DHT22;18679;45.190;5.722;2023-06-01T18:26:40;30.70;32.00
32173;DHT22;18679;45.190;5.722;2023-06-01T18:29:47;30.60;32.20
32173;DHT22;18679;45.190;5.722;2023-06-01T18:33:07;30.50;32.40
32173;DHT22;18679;45.190;5.722;2023-06-01T18:36:14;30.40;32.50
32173;DHT22;18679;45.190;5.722;2023-06-01T18:39:28;30.30;32.80
32173;DHT22;18679;45.190;5.722;2023-06-01T18:42:44;30.30;33.00
32173;DHT22;18679;45.190;5.722;2023-06-01T18:46:08;30.10;33.10
32173;DHT22;18679;45.190;5.722;2023-06-01T18:49:23;30.10;33.30
32173;DHT22;18679;45.190;5.722;2023-06-01T18:52:33;30.00;33.60
32173;DHT22;18679;45.190;5.722;2023-06-01T18:55:44;29.90;33.90
32173;DHT22;18679;45.190;5.722;2023-06-01T18:59:07;29.70;34.30
32173;DHT22;18679;45.190;5.722;2023-06-01T19:02:20;29.60;34.50
32173;DHT22;18679;45.190;5.722;2023-06-01T19:05:31;29.50;34.70
32173;DHT22;18679;45.190;5.722;2023-06-01T19:08:41;29.50;34.80
32173;DHT22;18679;45.190;5.722;2023-06-01T19:11:50;29.40;34.80
32173;DHT22;18679;45.190;5.722;2023-06-01T19:14:58;29.30;34.90
32173;DHT22;18679;45.190;5.722;2023-06-01T19:18:18;29.30;35.30
32173;DHT22;18679;45.190;5.722;2023-06-01T19:21:32;29.20;36.00
32173;DHT22;18679;45.190;5.722;2023-06-01T19:24:42;29.10;36.30
32173;DHT22;18679;45.190;5.722;2023-06-01T19:27:52;29.00;36.40
32173;DHT22;18679;45.190;5.722;2023-06-01T19:31:12;28.90;36.70
32173;DHT22;18679;45.190;5.722;2023-06-01T19:34:20;28.60;35.90
32173;DHT22;18679;45.190;5.722;2023-06-01T19:37:26;28.00;37.30
32173;DHT22;18679;45.190;5.722;2023-06-01T19:40:38;27.30;39.30
32173;DHT22;18679;45.190;5.722;2023-06-01T19:43:44;26.30;41.70
32173;DHT22;18679;45.190;5.722;2023-06-01T19:51:25;24.20;48.10
32173;DHT22;18679;45.190;5.722;2023-06-01T19:54:40;23.30;51.10
32173;DHT22;18679;45.190;5.722;2023-06-01T19:57:51;22.70;53.10
32173;DHT22;18679;45.190;5.722;2023-06-01T20:01:03;22.10;55.10
32173;DHT22;18679;45.190;5.722;2023-06-01T20:04:16;21.60;56.80
32173;DHT22;18679;45.190;5.722;2023-06-01T20:07:25;21.40;57.70
32173;DHT22;18679;45.190;5.722;2023-06-01T20:10:33;21.20;58.00
32173;DHT22;18679;45.190;5.722;2023-06-01T20:13:48;21.10;58.20
32173;DHT22;18679;45.190;5.722;2023-06-01T20:16:54;21.00;58.40
32173;DHT22;18679;45.190;5.722;2023-06-01T20:20:14;21.00;58.40
32173;DHT22;18679;45.190;5.722;2023-06-01T20:23:24;21.00;58.80
32173;DHT22;18679;45.190;5.722;2023-06-01T20:26:33;21.10;58.80
32173;DHT22;18679;45.190;5.722;2023-06-01T20:29:47;21.20;58.90
32173;DHT22;18679;45.190;5.722;2023-06-01T20:32:55;21.30;58.80
32173;DHT22;18679;45.190;5.722;2023-06-01T20:36:10;21.40;58.80
32173;DHT22;18679;45.190;5.722;2023-06-01T20:39:20;21.50;58.70
32173;DHT22;18679;45.190;5.722;2023-06-01T20:42:29;21.60;58.60
32173;DHT22;18679;45.190;5.722;2023-06-01T20:49:14;21.70;58.40
32173;DHT22;18679;45.190;5.722;2023-06-01T20:52:24;21.70;58.40